createdAt,value
2022-11-19T06:57:19.135Z,95864.09
2022-11-19T07:00:12.919Z,95867.50
2022-11-19T07:03:05.716Z,95859.31
2022-11-19T07:05:45.292Z,95866.16
2022-11-19T07:08:14.196Z,95855.75
2022-11-19T07:10:56.422Z,95873.94
2022-11-19T07:13:53.605Z,95864.53
2022-11-19T07:16:27.551Z,95873.75
2022-11-19T07:19:18.535Z,95877.97
2022-11-19T07:22:01.997Z,95881.19
2022-11-19T07:24:33.424Z,95875.16
2022-11-19T07:27:02.584Z,95871.34
2022-11-19T07:29:31.670Z,95886.13
2022-11-19T07:32:07.886Z,95885.31
2022-11-19T07:34:52.317Z,95886.50
2022-11-19T07:56:09.153Z,95901.03
2022-11-19T08:04:28.415Z,95904.81
2022-11-19T08:06:56.941Z,95911.66
2022-11-19T08:09:26.249Z,95904.03
2022-11-19T08:12:12.706Z,95906.81
2022-11-19T08:15:09.718Z,95913.63
2022-11-19T08:17:56.426Z,95911.66
2022-11-19T08:23:34.417Z,95923.28
2022-11-19T08:32:18.887Z,95922.28
2022-11-19T08:34:54.244Z,95923.69
2022-11-19T08:40:49.612Z,95924.50
2022-11-19T08:46:42.695Z,95922.72
2022-11-19T08:49:17.635Z,95928.09
2022-11-19T08:54:44.996Z,95940.09
2022-11-19T08:57:17.294Z,95945.28
2022-11-19T08:59:51.407Z,95944.94
2022-11-19T09:02:20.592Z,95948.97
2022-11-19T09:04:56.425Z,95948.97
2022-11-19T09:07:37.633Z,95951.38
2022-11-19T09:10:11.384Z,95948.16
2022-11-19T09:12:45.544Z,95953.53
2022-11-19T09:15:16.969Z,95953.38
2022-11-19T09:17:50.190Z,95949.41
2022-11-19T09:20:25.674Z,95957.00
2022-11-19T09:22:58.116Z,95959.81
2022-11-19T09:25:34.179Z,95954.00
2022-11-19T09:28:08.014Z,95952.19
2022-11-19T09:30:44.612Z,95955.22
2022-11-19T09:33:32.904Z,95963.66
2022-11-19T09:36:00.459Z,95960.03
2022-11-19T09:38:31.787Z,95966.25
2022-11-19T09:41:31.093Z,95965.25
2022-11-19T09:44:09.469Z,95977.06
2022-11-19T09:46:45.129Z,95970.06
2022-11-19T09:49:18.778Z,95972.88
2022-11-19T09:51:54.946Z,95975.25
2022-11-19T09:54:25.013Z,95979.09
2022-11-19T09:57:00.487Z,95975.78
2022-11-19T09:59:36.939Z,95974.41
2022-11-19T10:02:14.413Z,95971.47
2022-11-19T10:04:44.831Z,95977.00
2022-11-19T10:07:22.587Z,95966.63
2022-11-19T10:46:02.829Z,95962.53
2022-11-19T10:55:59.406Z,95949.44
2022-11-19T11:01:42.925Z,95949.41
2022-11-19T11:04:40.774Z,95949.38
2022-11-19T11:10:28.020Z,95945.72
2022-11-19T11:13:21.054Z,95946.28
2022-11-19T11:15:55.269Z,95945.28
2022-11-19T11:18:35.291Z,95945.06
2022-11-19T11:21:07.401Z,95947.84
2022-11-19T11:23:40.390Z,95948.22
2022-11-19T11:26:13.438Z,95941.44
2022-11-19T11:28:56.784Z,95936.00
2022-11-19T11:31:39.019Z,95922.97
2022-11-19T11:34:09.756Z,95928.97
2022-11-19T11:36:41.667Z,95939.41
2022-11-19T11:39:39.821Z,95934.59
2022-11-19T11:42:17.829Z,95926.59
2022-11-19T11:44:56.765Z,95931.19
2022-11-19T11:47:29.814Z,95933.19
2022-11-19T11:50:07.053Z,95929.34
2022-11-19T11:53:37.044Z,95924.34
2022-11-19T11:56:14.660Z,95924.13
2022-11-19T11:58:51.195Z,95920.69
2022-11-19T12:01:23.140Z,95921.25
2022-11-19T12:04:02.281Z,95926.66
2022-11-19T12:06:37.970Z,95925.06
2022-11-19T12:09:20.123Z,95938.88
2022-11-19T12:12:01.871Z,95938.06
2022-11-19T12:14:34.414Z,95931.47
2022-11-19T12:17:20.195Z,95931.63
2022-11-19T12:20:34.341Z,95929.03
2022-11-19T12:23:36.733Z,95936.06
2022-11-19T12:26:22.311Z,95936.63
2022-11-19T12:29:07.789Z,95935.00
2022-11-19T12:31:55.265Z,95933.19
2022-11-19T12:34:47.276Z,95936.00
2022-11-19T12:37:30.499Z,95930.81
2022-11-19T12:40:13.482Z,95929.19
2022-11-19T12:42:50.643Z,95930.59
2022-11-19T14:02:28.437Z,95952.84
2022-11-19T17:01:07.977Z,96016.53
2022-11-19T17:03:39.605Z,96025.66
2022-11-19T17:06:10.021Z,96026.50
2022-11-19T17:08:39.001Z,96023.06
2022-11-19T17:11:35.472Z,96024.69
2022-11-19T17:14:19.803Z,96022.44
2022-11-19T17:16:49.516Z,96029.97
2022-11-19T17:19:25.167Z,96035.53
2022-11-19T17:21:59.647Z,96031.94
2022-11-19T17:24:33.324Z,96027.00
2022-11-19T17:27:07.783Z,96033.47
2022-11-19T17:29:41.084Z,96033.47
2022-11-19T17:32:14.911Z,96040.28
2022-11-19T17:34:55.532Z,96040.28
2022-11-19T17:37:25.002Z,96036.88
2022-11-19T17:39:54.717Z,96029.44
2022-11-19T17:42:40.532Z,96040.19
2022-11-19T17:45:12.178Z,96038.13
2022-11-19T17:47:40.968Z,96043.00
2022-11-19T17:50:15.636Z,96044.97
2022-11-19T17:52:44.425Z,96040.78
2022-11-19T17:55:20.000Z,96044.16
2022-11-19T17:57:51.068Z,96047.88
2022-11-19T18:00:20.547Z,96048.31
2022-11-19T18:02:51.854Z,96048.75
2022-11-19T18:05:27.241Z,96049.22
2022-11-19T18:10:53.380Z,96058.09
2022-11-19T18:14:19.177Z,96051.56
2022-11-19T18:26:44.622Z,96052.75
2022-11-19T18:29:13.607Z,96054.97
2022-11-19T18:31:48.499Z,96061.59
2022-11-19T18:34:19.910Z,96054.59
2022-11-19T18:36:51.470Z,96048.44
2022-11-19T18:39:21.669Z,96060.44
2022-11-19T18:42:06.708Z,96063.84
2022-11-19T18:44:34.518Z,96058.47
2022-11-19T18:47:06.466Z,96069.69
2022-11-19T18:49:38.272Z,96063.66
2022-11-19T18:52:18.241Z,96065.63
2022-11-19T18:54:47.046Z,96066.78
2022-11-19T18:57:15.863Z,96065.00
2022-11-19T18:59:49.567Z,96060.78
2022-11-19T19:02:18.464Z,96061.34
2022-11-19T19:04:51.076Z,96058.09
2022-11-19T19:07:21.139Z,96067.06
2022-11-19T19:09:49.555Z,96067.88
2022-11-19T19:12:19.625Z,96070.47
2022-11-19T19:14:51.631Z,96064.09
2022-11-19T19:17:20.966Z,96074.78
2022-11-19T19:19:49.759Z,96076.38
2022-11-19T19:22:18.527Z,96077.38
2022-11-19T19:24:50.010Z,96071.56
2022-11-19T19:27:20.416Z,96073.16
2022-11-19T19:29:48.995Z,96075.47
2022-11-19T19:32:17.497Z,96082.97
2022-11-19T19:34:46.319Z,96076.19
2022-11-19T19:37:15.037Z,96085.78
2022-11-19T19:39:43.034Z,96071.38
2022-11-19T19:42:23.433Z,96078.69
2022-11-19T19:44:52.442Z,96078.22
2022-11-19T19:47:20.822Z,96079.38
2022-11-19T19:49:50.205Z,96073.09
2022-11-19T19:52:18.657Z,96077.84
2022-11-19T19:54:47.101Z,96070.88
2022-11-19T19:57:18.441Z,96081.06
2022-11-19T19:59:49.056Z,96081.50
2022-11-19T20:02:17.086Z,96087.34
2022-11-19T20:04:45.228Z,96087.16
2022-11-19T20:07:13.303Z,96084.03
2022-11-19T20:09:41.182Z,96087.75
2022-11-19T20:12:09.142Z,96087.22
2022-11-19T20:14:44.690Z,96088.28
2022-11-19T20:17:12.813Z,96083.91
2022-11-19T20:19:40.974Z,96092.75
2022-11-19T20:22:10.143Z,96089.81
2022-11-19T20:24:37.990Z,96090.25
2022-11-19T20:27:05.960Z,96087.31
2022-11-19T20:29:33.760Z,96094.75
2022-11-19T20:32:02.991Z,96094.56
2022-11-19T20:34:30.969Z,96098.78
2022-11-19T20:37:01.628Z,96097.00
2022-11-19T20:39:30.118Z,96104.16
2022-11-19T20:42:15.548Z,96101.28
2022-11-19T20:44:43.303Z,96101.66
2022-11-19T20:47:12.344Z,96101.66
2022-11-19T20:49:39.940Z,96104.41
2022-11-19T20:52:08.197Z,96116.44
2022-11-19T20:54:35.919Z,96117.22
2022-11-19T20:57:03.865Z,96111.66
2022-11-19T20:59:32.344Z,96113.94
2022-11-19T21:02:00.220Z,96108.53
2022-11-19T21:04:31.486Z,96110.34
2022-11-19T21:06:59.245Z,96110.97
2022-11-19T21:09:30.048Z,96108.19
2022-11-19T21:11:57.914Z,96106.41
2022-11-19T21:14:25.671Z,96107.19
2022-11-19T21:16:53.557Z,96111.44
2022-11-19T21:19:21.525Z,96114.81
2022-11-19T21:21:50.737Z,96111.59
2022-11-19T21:24:18.462Z,96109.00
2022-11-19T21:26:46.277Z,96110.00
2022-11-19T21:29:14.437Z,96114.56
2022-11-19T21:31:44.531Z,96104.97
2022-11-19T21:34:14.507Z,96107.75
2022-11-19T21:36:43.471Z,96107.75
2022-11-19T21:39:14.920Z,96106.94
2022-11-19T21:41:42.610Z,96106.13
2022-11-19T21:44:10.605Z,96108.09
2022-11-19T21:46:38.124Z,96104.50
2022-11-19T21:49:06.245Z,96106.31
2022-11-19T21:51:33.768Z,96107.09
2022-11-19T21:54:01.451Z,96108.91
2022-11-19T21:56:35.499Z,96111.34
2022-11-19T21:59:05.798Z,96111.97
2022-11-19T22:01:33.275Z,96107.75
2022-11-19T22:04:00.813Z,96111.34
2022-11-19T22:06:28.400Z,96114.91
2022-11-19T22:08:56.118Z,96122.06
2022-11-19T22:11:32.532Z,96120.78
2022-11-19T22:14:03.847Z,96119.19
2022-11-19T22:16:33.298Z,96118.56
2022-11-19T22:19:00.922Z,96116.34
2022-11-19T22:21:29.912Z,96120.25
2022-11-19T22:23:57.694Z,96125.63
2022-11-19T22:26:25.214Z,96125.78
2022-11-19T22:28:52.767Z,96130.97
2022-11-19T22:31:21.706Z,96130.97
2022-11-19T22:33:51.673Z,96124.53
2022-11-19T22:36:20.844Z,96118.53
2022-11-19T22:38:48.539Z,96114.50
2022-11-19T22:41:18.530Z,96114.50
2022-11-19T22:43:46.456Z,96111.28
2022-11-19T22:46:14.648Z,96106.09
2022-11-19T22:48:43.710Z,96113.88
2022-11-19T22:51:14.361Z,96112.28
2022-11-19T22:53:42.685Z,96110.47
2022-11-19T22:56:12.212Z,96112.91
2022-11-19T22:58:39.963Z,96118.53
2022-11-19T23:01:08.959Z,96113.97
2022-11-19T23:03:36.553Z,96108.63
2022-11-19T23:06:05.719Z,96106.81
2022-11-19T23:08:33.294Z,96110.03
2022-11-19T23:11:03.101Z,96115.88
2022-11-19T23:13:31.785Z,96119.09
2022-11-19T23:16:01.706Z,96118.31
2022-11-19T23:18:31.058Z,96120.91
2022-11-19T23:20:59.664Z,96123.50
2022-11-19T23:23:28.525Z,96128.69
2022-11-19T23:25:57.428Z,96119.09
2022-11-19T23:28:25.210Z,96119.91
2022-11-19T23:30:54.051Z,96121.53
2022-11-19T23:33:21.861Z,96121.53
2022-11-19T23:35:49.686Z,96122.31
2022-11-19T23:38:17.228Z,96122.31
2022-11-19T23:40:46.114Z,96108.72
2022-11-19T23:43:14.244Z,96121.69
2022-11-19T23:45:41.784Z,96120.06
2022-11-19T23:48:09.318Z,96114.25
2022-11-19T23:50:36.836Z,96115.06
2022-11-19T23:53:04.338Z,96115.06
2022-11-19T23:55:31.864Z,96121.22
2022-11-19T23:58:00.754Z,96115.22
